createdAt,value
2022-11-27T00:00:52.319Z,99998.78
2022-11-27T00:02:54.133Z,99985.44
2022-11-27T00:04:55.697Z,99991.50
2022-11-27T00:06:57.279Z,99985.22
2022-11-27T00:09:01.061Z,99984.59
2022-11-27T00:11:12.596Z,99982.06
2022-11-27T00:13:14.433Z,99967.00
2022-11-27T00:15:17.427Z,99967.00
2022-11-27T00:17:19.149Z,99969.28
2022-11-27T00:19:22.411Z,99964.88
2022-11-27T00:21:29.488Z,99955.09
2022-11-27T00:23:32.280Z,99951.53
2022-11-27T00:25:34.177Z,99956.31
2022-11-27T00:27:35.749Z,99952.75
2022-11-27T00:29:37.318Z,99953.78
2022-11-27T00:31:38.996Z,99944.00
2022-11-27T00:33:40.765Z,99947.72
2022-11-27T00:35:42.683Z,99949.59
2022-11-27T00:37:44.529Z,99940.81
2022-11-27T00:39:47.294Z,99941.84
2022-11-27T00:41:50.857Z,99940.19
2022-11-27T00:43:56.898Z,99938.50
2022-11-27T00:45:58.509Z,99937.66
2022-11-27T00:48:00.179Z,99944.97
2022-11-27T00:50:01.744Z,99942.25
2022-11-27T00:52:03.740Z,99945.13
2022-11-27T00:54:05.940Z,99947.00
2022-11-27T00:56:08.344Z,99947.84
2022-11-27T00:58:10.114Z,99945.34
2022-11-27T01:00:12.836Z,99945.34
2022-11-27T01:02:14.566Z,99950.75
2022-11-27T01:04:16.570Z,99948.06
2022-11-27T01:06:20.250Z,99940.94
2022-11-27T01:08:22.577Z,99932.81
2022-11-27T01:10:24.056Z,99936.38
2022-11-27T01:12:25.567Z,99937.22
2022-11-27T01:14:27.151Z,99935.53
2022-11-27T01:16:31.126Z,99932.81
2022-11-27T01:18:34.142Z,99925.53
2022-11-27T01:20:39.226Z,99935.34
2022-11-27T01:22:41.019Z,99926.38
2022-11-27T01:24:43.398Z,99928.03
2022-11-27T01:26:45.538Z,99930.75
2022-11-27T01:28:47.729Z,99928.88
2022-11-27T01:30:50.412Z,99931.41
2022-11-27T01:32:52.228Z,99924.09
2022-11-27T01:34:54.472Z,99922.22
2022-11-27T01:36:56.280Z,99925.78
2022-11-27T01:38:58.795Z,99929.34
2022-11-27T01:41:06.634Z,99918.50
2022-11-27T01:43:14.953Z,99917.66
2022-11-27T01:45:19.058Z,99918.28
2022-11-27T01:47:35.106Z,99918.28
2022-11-27T01:49:40.880Z,99899.16
2022-11-27T01:51:46.631Z,99901.00
2022-11-27T01:53:48.852Z,99898.09
2022-11-27T01:55:56.146Z,99897.06
2022-11-27T01:58:10.756Z,99897.06
2022-11-27T02:00:14.699Z,99900.63
2022-11-27T02:02:16.628Z,99898.72
2022-11-27T02:04:19.299Z,99900.41
2022-11-27T02:06:20.996Z,99898.56
2022-11-27T02:08:23.032Z,99900.03
2022-11-27T02:10:49.765Z,99896.84
2022-11-27T02:13:20.999Z,99888.56
2022-11-27T02:15:51.118Z,99881.44
2022-11-27T02:18:02.128Z,99883.94
2022-11-27T02:20:26.821Z,99880.44
2022-11-27T02:23:05.892Z,99879.56
2022-11-27T02:25:16.476Z,99875.00
2022-11-27T02:27:47.793Z,99877.03
2022-11-27T02:29:53.841Z,99880.59
2022-11-27T02:32:04.535Z,99882.28
2022-11-27T02:34:28.646Z,99876.66
2022-11-27T02:36:33.864Z,99879.38
2022-11-27T02:38:44.293Z,99873.09
2022-11-27T02:40:54.734Z,99877.28
2022-11-27T02:43:02.700Z,99874.59
2022-11-27T02:45:12.374Z,99872.94
2022-11-27T02:47:15.536Z,99869.16
2022-11-27T02:49:19.270Z,99867.13
2022-11-27T02:51:25.607Z,99864.41
2022-11-27T02:53:37.954Z,99858.31
2022-11-27T02:55:42.429Z,99863.75
2022-11-27T02:57:46.323Z,99863.75
2022-11-27T02:59:51.030Z,99863.94
2022-11-27T03:01:59.256Z,99857.50
2022-11-27T03:04:07.257Z,99859.56
2022-11-27T03:06:18.950Z,99851.63
2022-11-27T03:08:28.104Z,99841.81
2022-11-27T03:10:52.023Z,99852.00
2022-11-27T03:12:53.684Z,99849.31
2022-11-27T03:14:55.972Z,99848.28
2022-11-27T03:17:16.607Z,99847.66
2022-11-27T03:19:21.028Z,99848.03
2022-11-27T03:21:39.511Z,99860.75
2022-11-27T03:23:41.130Z,99847.41
2022-11-27T03:25:42.742Z,99844.00
2022-11-27T03:27:50.189Z,99839.66
2022-11-27T03:29:58.040Z,99841.72
2022-11-27T03:32:01.345Z,99847.16
2022-11-27T03:34:04.176Z,99838.34
2022-11-27T03:36:17.647Z,99838.94
2022-11-27T03:38:23.770Z,99846.03
2022-11-27T03:40:35.370Z,99847.91
2022-11-27T03:42:59.207Z,99841.84
2022-11-27T03:45:19.425Z,99837.84
2022-11-27T03:47:37.096Z,99837.19
2022-11-27T03:50:18.471Z,99835.72
2022-11-27T03:52:50.659Z,99831.75
2022-11-27T03:55:05.256Z,99837.75
2022-11-27T03:57:32.784Z,99818.78
2022-11-27T03:59:40.201Z,99832.50
2022-11-27T04:01:42.077Z,99832.69
2022-11-27T04:03:43.839Z,99821.22
2022-11-27T04:05:45.462Z,99830.59
2022-11-27T04:07:47.200Z,99829.91
2022-11-27T04:09:49.004Z,99828.44
2022-11-27T04:11:50.564Z,99827.78
2022-11-27T04:13:52.390Z,99825.47
2022-11-27T04:15:54.158Z,99836.50
2022-11-27T04:17:55.895Z,99834.16
2022-11-27T04:19:57.624Z,99846.03
2022-11-27T04:21:59.145Z,99839.13
2022-11-27T04:24:00.774Z,99837.47
2022-11-27T04:26:02.529Z,99835.34
2022-11-27T04:28:04.131Z,99839.91
2022-11-27T04:30:06.362Z,99843.00
2022-11-27T04:32:10.089Z,99837.56
2022-11-27T04:34:11.782Z,99832.75
2022-11-27T04:36:13.534Z,99840.03
2022-11-27T04:38:15.393Z,99833.13
2022-11-27T04:40:18.208Z,99840.78
2022-11-27T04:42:19.972Z,99841.81
2022-11-27T04:44:22.711Z,99838.47
2022-11-27T04:46:24.621Z,99842.19
2022-11-27T04:48:26.264Z,99856.75
2022-11-27T04:50:28.021Z,99853.22
2022-11-27T04:52:29.594Z,99846.69
2022-11-27T04:54:33.357Z,99843.16
2022-11-27T04:56:35.005Z,99837.09
2022-11-27T04:58:36.653Z,99838.97
2022-11-27T05:00:38.336Z,99830.84
2022-11-27T05:02:40.223Z,99833.91
2022-11-27T05:04:42.036Z,99830.56
2022-11-27T05:06:43.838Z,99832.25
2022-11-27T05:08:45.757Z,99835.13
2022-11-27T05:10:47.672Z,99838.88
2022-11-27T05:12:49.367Z,99824.50
2022-11-27T05:14:50.927Z,99829.94
2022-11-27T05:16:57.152Z,99833.66
2022-11-27T05:18:58.723Z,99830.28
2022-11-27T05:21:06.728Z,99830.28
2022-11-27T05:23:08.484Z,99826.75
2022-11-27T05:25:10.243Z,99827.75
2022-11-27T05:27:11.894Z,99823.38
2022-11-27T05:29:14.540Z,99837.75
2022-11-27T05:31:16.533Z,99836.06
2022-11-27T05:33:19.251Z,99824.78
2022-11-27T05:35:21.049Z,99824.78
2022-11-27T05:37:22.789Z,99827.28
2022-11-27T05:39:24.478Z,99823.75
2022-11-27T05:41:26.435Z,99825.59
2022-11-27T05:43:27.956Z,99820.19
2022-11-27T05:45:29.792Z,99813.13
2022-11-27T05:47:31.729Z,99827.66
2022-11-27T05:49:36.628Z,99816.00
2022-11-27T05:51:38.354Z,99815.19
2022-11-27T05:53:43.546Z,99818.06
2022-11-27T05:55:45.224Z,99822.63
2022-11-27T05:57:46.883Z,99820.97
2022-11-27T05:59:48.519Z,99820.97
2022-11-27T06:01:50.621Z,99820.97
2022-11-27T06:03:52.546Z,99815.94
2022-11-27T06:05:55.136Z,99822.19
2022-11-27T06:07:56.954Z,99825.91
2022-11-27T06:09:58.804Z,99828.44
2022-11-27T06:12:00.589Z,99829.44
2022-11-27T06:14:02.166Z,99829.66
2022-11-27T06:16:18.228Z,99820.69
2022-11-27T06:18:19.837Z,99825.25
2022-11-27T06:20:24.284Z,99817.50
2022-11-27T06:22:25.983Z,99816.66
2022-11-27T06:24:27.895Z,99810.63
2022-11-27T06:26:32.191Z,99812.47
2022-11-27T06:28:33.834Z,99812.47
2022-11-27T06:30:37.594Z,99813.69
2022-11-27T06:32:39.087Z,99815.59
2022-11-27T06:34:41.450Z,99812.88
2022-11-27T06:36:43.210Z,99808.69
2022-11-27T06:38:47.830Z,99808.69
2022-11-27T06:40:49.625Z,99807.00
2022-11-27T06:42:51.359Z,99806.34
2022-11-27T06:44:52.867Z,99802.81
2022-11-27T06:46:54.686Z,99805.72
2022-11-27T06:48:57.832Z,99807.94
2022-11-27T06:51:04.519Z,99801.69
2022-11-27T06:53:06.131Z,99792.94
2022-11-27T06:55:08.026Z,99797.69
2022-11-27T06:57:09.745Z,99796.00
2022-11-27T06:59:14.479Z,99796.19
2022-11-27T07:01:17.527Z,99803.66
2022-11-27T07:03:19.368Z,99800.13
2022-11-27T07:05:20.941Z,99794.06
2022-11-27T07:07:22.849Z,99794.06
2022-11-27T07:09:24.706Z,99789.88
2022-11-27T07:11:28.899Z,99787.97
2022-11-27T07:13:31.179Z,99786.31
2022-11-27T07:15:33.497Z,99784.63
2022-11-27T07:17:35.420Z,99777.56
2022-11-27T07:19:36.953Z,99778.59
2022-11-27T07:21:38.814Z,99769.63
2022-11-27T07:23:42.948Z,99767.97
2022-11-27T07:25:44.692Z,99767.97
2022-11-27T07:27:46.553Z,99773.53
2022-11-27T07:29:48.338Z,99770.84
2022-11-27T07:31:51.461Z,99763.78
2022-11-27T07:33:53.277Z,99768.34
2022-11-27T07:36:00.618Z,99766.66
2022-11-27T07:38:02.264Z,99770.41
2022-11-27T07:40:04.667Z,99769.56
2022-11-27T07:42:36.476Z,99768.06
2022-11-27T07:44:29.802Z,99771.59
2022-11-27T07:46:31.761Z,99779.50
2022-11-27T07:48:36.737Z,99779.72
2022-11-27T07:50:40.347Z,99778.66
2022-11-27T07:52:42.440Z,99775.97
2022-11-27T07:54:44.302Z,99781.38
2022-11-27T07:56:45.935Z,99778.66
2022-11-27T07:58:48.237Z,99771.59
2022-11-27T08:00:50.071Z,99769.91
2022-11-27T08:02:51.937Z,99777.81
2022-11-27T08:04:53.735Z,99779.50
2022-11-27T08:06:58.575Z,99772.25
2022-11-27T08:09:00.366Z,99774.09
2022-11-27T08:11:01.946Z,99777.66
2022-11-27T08:13:04.138Z,99770.41
2022-11-27T08:15:06.294Z,99778.31
2022-11-27T08:17:09.331Z,99768.34
2022-11-27T08:19:11.208Z,99774.59
2022-11-27T08:21:12.737Z,99785.00
2022-11-27T08:23:14.398Z,99782.13
2022-11-27T08:25:16.460Z,99780.06
2022-11-27T08:27:18.742Z,99785.97
2022-11-27T08:29:20.410Z,99781.19
2022-11-27T08:31:22.552Z,99782.84
2022-11-27T08:33:24.663Z,99784.53
2022-11-27T08:35:26.410Z,99770.66
2022-11-27T08:37:28.231Z,99780.25
2022-11-27T08:39:29.903Z,99772.78
2022-11-27T08:41:31.605Z,99769.88
2022-11-27T08:43:34.000Z,99761.75
2022-11-27T08:45:39.170Z,99753.28
2022-11-27T08:47:42.183Z,99751.22
2022-11-27T08:49:46.199Z,99738.38
2022-11-27T08:51:48.258Z,99752.53
2022-11-27T08:53:50.126Z,99760.28
2022-11-27T08:55:51.761Z,99749.06
2022-11-27T08:57:53.367Z,99755.31
2022-11-27T08:59:55.231Z,99743.25
2022-11-27T09:01:57.160Z,99743.53
2022-11-27T09:03:59.512Z,99762.31
2022-11-27T09:06:01.278Z,99762.72
2022-11-27T09:08:05.578Z,99763.84
2022-11-27T09:10:08.725Z,99763.50
2022-11-27T09:12:10.436Z,99761.22
2022-11-27T09:14:12.454Z,99761.69
2022-11-27T09:16:17.325Z,99759.25
2022-11-27T09:18:19.369Z,99756.16
2022-11-27T09:20:21.489Z,99746.44
2022-11-27T09:22:23.119Z,99742.69
2022-11-27T09:24:25.021Z,99746.50
2022-11-27T09:26:28.466Z,99745.28
2022-11-27T09:28:31.775Z,99741.13
2022-11-27T09:30:33.655Z,99734.31
2022-11-27T09:32:35.337Z,99732.88
2022-11-27T09:34:37.882Z,99736.22
2022-11-27T09:36:39.624Z,99741.91
2022-11-27T09:38:42.580Z,99750.69
2022-11-27T09:41:03.284Z,99750.09
2022-11-27T09:43:10.171Z,99747.00
2022-11-27T09:45:16.270Z,99743.06
2022-11-27T09:47:25.292Z,99735.78
2022-11-27T09:49:35.332Z,99727.25
2022-11-27T09:51:44.154Z,99732.28
2022-11-27T09:54:01.129Z,99725.63
2022-11-27T09:56:08.801Z,99724.41
2022-11-27T09:58:19.051Z,99728.59
2022-11-27T10:00:21.981Z,99719.22
2022-11-27T10:02:30.737Z,99723.41
2022-11-27T10:04:45.132Z,99727.41
2022-11-27T10:07:27.915Z,99729.06
2022-11-27T10:09:48.458Z,99721.59
2022-11-27T10:12:09.092Z,99713.91
2022-11-27T10:14:25.747Z,99708.09
2022-11-27T10:16:44.766Z,99705.81
2022-11-27T10:19:06.445Z,99708.75
2022-11-27T10:21:29.996Z,99704.81
2022-11-27T10:24:10.054Z,99697.34
2022-11-27T10:26:28.359Z,99697.75
2022-11-27T10:28:46.112Z,99690.25
2022-11-27T10:31:10.575Z,99682.56
2022-11-27T10:33:22.228Z,99687.78
2022-11-27T10:35:26.998Z,99682.19
2022-11-27T10:37:31.556Z,99684.28
2022-11-27T10:39:41.381Z,99678.25
2022-11-27T10:41:53.194Z,99664.50
2022-11-27T10:44:00.405Z,99658.66
2022-11-27T10:46:12.884Z,99657.41
2022-11-27T10:48:15.717Z,99650.56
2022-11-27T10:50:19.357Z,99646.41
2022-11-27T10:52:21.293Z,99648.28
2022-11-27T10:54:38.450Z,99622.84
2022-11-27T10:57:05.100Z,99614.94
2022-11-27T10:59:11.892Z,99613.06
2022-11-27T11:01:19.561Z,99603.66
2022-11-27T11:03:22.683Z,99609.72
2022-11-27T11:06:11.625Z,99605.31
2022-11-27T11:08:07.502Z,99603.28
2022-11-27T11:10:26.620Z,99606.78
2022-11-27T11:12:28.388Z,99595.53
2022-11-27T11:14:30.273Z,99591.97
2022-11-27T11:16:35.685Z,99598.88
2022-11-27T11:18:49.884Z,99587.00
2022-11-27T11:21:02.665Z,99591.56
2022-11-27T11:23:06.662Z,99587.22
2022-11-27T11:25:17.406Z,99586.81
2022-11-27T11:27:23.107Z,99580.31
2022-11-27T11:29:34.780Z,99580.97
2022-11-27T11:31:41.193Z,99569.91
2022-11-27T11:34:20.594Z,99567.81
2022-11-27T11:36:22.772Z,99562.81
2022-11-27T11:38:31.104Z,99561.97
2022-11-27T11:40:35.433Z,99556.13
2022-11-27T11:42:38.424Z,99554.66
2022-11-27T11:44:40.887Z,99553.63
2022-11-27T11:46:51.957Z,99547.97
2022-11-27T11:49:15.936Z,99548.41
2022-11-27T11:51:29.466Z,99553.63
2022-11-27T11:53:37.947Z,99553.44
2022-11-27T11:56:04.500Z,99552.19
2022-11-27T11:58:10.425Z,99545.50
2022-11-27T12:00:18.347Z,99540.69
2022-11-27T12:02:41.078Z,99539.66
2022-11-27T12:05:09.797Z,99534.22
2022-11-27T12:07:38.608Z,99516.69
2022-11-27T12:09:59.197Z,99510.00
2022-11-27T12:12:19.133Z,99508.75
2022-11-27T12:14:47.517Z,99512.06
2022-11-27T12:17:13.281Z,99506.41
2022-11-27T12:19:30.951Z,99499.97
2022-11-27T12:21:44.768Z,99497.88
2022-11-27T12:24:02.413Z,99498.28
2022-11-27T12:26:26.601Z,99507.03
2022-11-27T12:28:38.238Z,99499.50
2022-11-27T12:31:09.576Z,99505.78
2022-11-27T12:33:27.097Z,99503.69
2022-11-27T12:35:35.287Z,99500.75
2022-11-27T12:37:56.390Z,99501.41
2022-11-27T12:40:05.008Z,99498.47
2022-11-27T12:42:40.889Z,99489.47
2022-11-27T12:44:57.998Z,99490.09
2022-11-27T12:47:11.063Z,99486.75
2022-11-27T12:49:20.416Z,99487.19
2022-11-27T12:51:32.080Z,99485.53
2022-11-27T12:53:37.188Z,99491.34
2022-11-27T12:55:42.446Z,99481.94
2022-11-27T12:58:07.079Z,99478.19
2022-11-27T13:00:15.712Z,99471.50
2022-11-27T13:02:26.976Z,99477.09
2022-11-27T13:04:54.546Z,99470.41
2022-11-27T13:07:06.416Z,99467.69
2022-11-27T13:09:21.239Z,99468.53
2022-11-27T13:11:31.186Z,99477.91
2022-11-27T13:13:42.537Z,99469.34
2022-11-27T13:16:01.074Z,99464.75
2022-11-27T13:18:20.125Z,99460.13
2022-11-27T13:20:29.854Z,99466.56
2022-11-27T13:22:34.969Z,99460.94
2022-11-27T13:24:37.023Z,99455.06
2022-11-27T13:26:53.628Z,99449.63
2022-11-27T13:29:02.122Z,99443.16
2022-11-27T13:31:05.763Z,99441.28
2022-11-27T13:33:08.162Z,99443.75
2022-11-27T13:35:20.598Z,99440.84
2022-11-27T13:37:33.212Z,99431.84
2022-11-27T13:39:38.155Z,99426.19
2022-11-27T13:41:41.323Z,99435.78
2022-11-27T13:43:45.467Z,99433.91
2022-11-27T13:45:48.207Z,99443.31
2022-11-27T13:47:52.069Z,99437.47
2022-11-27T13:50:06.415Z,99431.19
2022-11-27T13:52:12.431Z,99437.66
2022-11-27T13:54:25.909Z,99425.16
2022-11-27T13:56:31.383Z,99421.34
2022-11-27T13:58:34.817Z,99426.78
2022-11-27T14:00:38.519Z,99421.59
2022-11-27T14:02:51.989Z,99416.16
2022-11-27T14:04:56.449Z,99415.91
2022-11-27T14:07:07.131Z,99401.72
2022-11-27T14:09:09.073Z,99398.16
2022-11-27T14:11:13.052Z,99399.00
2022-11-27T14:13:14.900Z,99396.50
2022-11-27T14:15:16.448Z,99392.13
2022-11-27T14:17:35.008Z,99397.78
2022-11-27T14:19:36.674Z,99390.66
2022-11-27T14:21:42.873Z,99393.38
2022-11-27T14:23:53.660Z,99405.94
2022-11-27T14:26:04.568Z,99408.25
2022-11-27T14:28:15.055Z,99402.81
2022-11-27T14:30:36.250Z,99401.16
2022-11-27T14:32:38.079Z,99395.72
2022-11-27T14:34:40.769Z,99395.50
2022-11-27T14:36:42.602Z,99383.19
2022-11-27T14:38:46.709Z,99376.72
2022-11-27T14:40:51.734Z,99372.31
2022-11-27T14:42:53.411Z,99357.69
2022-11-27T14:45:06.489Z,99350.56
2022-11-27T14:47:08.377Z,99354.13
2022-11-27T14:49:18.546Z,99345.13
2022-11-27T14:51:22.546Z,99347.84
2022-11-27T14:53:27.737Z,99343.47
2022-11-27T14:55:34.424Z,99348.69
2022-11-27T14:57:36.941Z,99352.25
2022-11-27T14:59:40.032Z,99352.44
2022-11-27T15:01:41.899Z,99349.53
2022-11-27T15:03:43.782Z,99354.72
2022-11-27T15:05:59.535Z,99348.47
2022-11-27T15:08:01.995Z,99341.97
2022-11-27T15:10:17.588Z,99333.84
2022-11-27T15:12:23.179Z,99322.34
2022-11-27T15:14:28.650Z,99324.84
2022-11-27T15:16:31.950Z,99327.78
2022-11-27T15:18:38.809Z,99323.16
2022-11-27T15:20:44.316Z,99328.59
2022-11-27T15:22:55.369Z,99328.22
2022-11-27T15:25:06.127Z,99328.84
2022-11-27T15:27:17.255Z,99324.44
2022-11-27T15:29:36.802Z,99315.25
2022-11-27T15:31:38.499Z,99308.78
2022-11-27T15:33:42.243Z,99312.53
2022-11-27T15:35:43.884Z,99310.84
2022-11-27T15:37:45.679Z,99312.53
2022-11-27T15:39:54.395Z,99302.69
2022-11-27T15:41:58.873Z,99306.47
2022-11-27T15:44:03.402Z,99310.84
2022-11-27T15:46:08.411Z,99304.59
2022-11-27T15:48:19.438Z,99307.09
2022-11-27T15:50:21.351Z,99305.22
2022-11-27T15:52:23.391Z,99304.38
2022-11-27T15:54:28.396Z,99299.16
2022-11-27T15:57:04.742Z,99281.44
2022-11-27T15:59:45.274Z,99279.50
2022-11-27T16:01:47.684Z,99268.66
2022-11-27T16:03:49.501Z,99264.06
2022-11-27T16:06:30.238Z,99246.09
2022-11-27T16:08:32.458Z,99242.31
2022-11-27T16:10:34.222Z,99244.00
2022-11-27T16:12:38.501Z,99230.59
2022-11-27T16:14:40.490Z,99215.38
2022-11-27T16:17:21.851Z,99199.28
2022-11-27T16:20:14.482Z,99197.63
2022-11-27T16:22:16.158Z,99192.19
2022-11-27T16:24:17.882Z,99180.25
2022-11-27T16:26:19.686Z,99179.22
2022-11-27T16:28:21.293Z,99182.16
2022-11-27T16:30:23.258Z,99181.09
2022-11-27T16:32:25.284Z,99181.34
2022-11-27T16:34:27.173Z,99190.31
2022-11-27T16:36:29.238Z,99177.53
2022-11-27T16:38:32.972Z,99182.97
2022-11-27T16:40:34.963Z,99180.50
2022-11-27T16:42:37.609Z,99172.34
2022-11-27T16:44:40.587Z,99174.22
2022-11-27T16:46:48.047Z,99173.63
2022-11-27T16:48:50.436Z,99177.78
2022-11-27T16:51:01.939Z,99174.22
2022-11-27T16:53:07.589Z,99170.47
2022-11-27T16:55:10.003Z,99175.91
2022-11-27T16:57:12.469Z,99169.38
2022-11-27T16:59:15.272Z,99178.63
2022-11-27T17:01:20.787Z,99172.09
2022-11-27T17:03:22.643Z,99176.72
2022-11-27T17:05:27.127Z,99182.16
2022-11-27T17:07:29.991Z,99182.97
2022-11-27T17:09:31.546Z,99180.50
2022-11-27T17:11:35.537Z,99179.44
2022-11-27T17:13:37.945Z,99173.19
2022-11-27T17:15:40.820Z,99167.94
2022-11-27T17:17:44.059Z,99165.47
2022-11-27T17:19:47.279Z,99169.22
2022-11-27T17:21:48.952Z,99171.94
2022-11-27T17:23:51.588Z,99162.75
2022-11-27T17:25:53.306Z,99168.19
2022-11-27T17:27:55.060Z,99180.09
2022-11-27T17:29:56.775Z,99186.59
2022-11-27T17:31:58.414Z,99187.63
2022-11-27T17:34:00.235Z,99184.91
2022-11-27T17:36:02.789Z,99192.47
2022-11-27T17:38:04.416Z,99187.03
2022-11-27T17:40:06.789Z,99181.84
2022-11-27T17:42:12.951Z,99182.88
2022-11-27T17:44:16.410Z,99184.75
2022-11-27T17:46:21.471Z,99179.31
2022-11-27T17:48:25.270Z,99173.91
2022-11-27T17:50:27.095Z,99177.22
2022-11-27T17:52:29.184Z,99178.88
2022-11-27T17:54:30.950Z,99178.06
2022-11-27T17:56:34.727Z,99170.75
2022-11-27T17:58:37.152Z,99170.75
2022-11-27T18:00:40.158Z,99168.84
2022-11-27T18:02:42.111Z,99165.31
2022-11-27T18:04:45.116Z,99162.59
2022-11-27T18:06:47.342Z,99143.56
2022-11-27T18:08:49.496Z,99135.41
2022-11-27T18:10:51.271Z,99119.97
2022-11-27T18:12:53.484Z,99105.53
2022-11-27T18:15:01.020Z,99098.22
2022-11-27T18:17:05.323Z,99099.06
2022-11-27T18:19:09.643Z,99088.41
2022-11-27T18:21:18.329Z,99086.75
2022-11-27T18:23:20.385Z,99088.63
2022-11-27T18:25:22.089Z,99085.94
2022-11-27T18:27:24.173Z,99090.28
2022-11-27T18:29:25.598Z,99089.25
2022-11-27T18:31:27.627Z,99089.47
2022-11-27T18:33:29.219Z,99095.94
2022-11-27T18:35:33.034Z,99090.28
2022-11-27T18:37:35.807Z,99091.13
2022-11-27T18:39:38.533Z,99085.94
2022-11-27T18:41:40.913Z,99089.47
2022-11-27T18:43:44.112Z,99077.53
2022-11-27T18:45:46.199Z,99071.06
2022-11-27T18:47:48.224Z,99062.31
2022-11-27T18:49:49.800Z,99062.06
2022-11-27T18:51:52.909Z,99057.69
2022-11-27T18:53:56.420Z,99049.53
2022-11-27T18:56:19.524Z,99046.47
2022-11-27T18:58:24.150Z,99035.59
2022-11-27T19:00:27.049Z,99023.91
2022-11-27T19:02:31.343Z,99025.56
2022-11-27T19:04:36.497Z,99023.06
2022-11-27T19:06:39.345Z,99013.03
2022-11-27T19:08:41.652Z,99012.19
2022-11-27T19:10:43.367Z,99013.25
2022-11-27T19:12:44.946Z,99038.50
2022-11-27T19:14:47.259Z,99032.28
2022-11-27T19:16:48.975Z,99042.31
2022-11-27T19:18:51.871Z,99044.19
2022-11-27T19:20:55.103Z,99043.34
2022-11-27T19:22:57.340Z,99044.41
2022-11-27T19:24:58.918Z,99046.31
2022-11-27T19:27:03.535Z,99047.13
2022-11-27T19:29:09.512Z,99041.91
2022-11-27T19:31:15.228Z,99038.34
2022-11-27T19:33:17.093Z,99048.41
2022-11-27T19:35:24.471Z,99056.56
2022-11-27T19:37:34.562Z,99051.34
2022-11-27T19:39:37.508Z,99044.88
2022-11-27T19:41:40.942Z,99046.97
2022-11-27T19:43:43.488Z,99045.31
2022-11-27T19:45:45.843Z,99042.00
2022-11-27T19:47:48.485Z,99035.50
2022-11-27T19:49:49.929Z,99025.69
2022-11-27T19:51:51.923Z,99024.00
2022-11-27T19:53:53.958Z,99027.78
2022-11-27T19:55:55.935Z,99024.22
2022-11-27T19:57:58.708Z,99009.81
2022-11-27T20:00:02.789Z,99005.44
2022-11-27T20:02:15.452Z,99000.00
2022-11-27T20:04:17.589Z,98991.25
2022-11-27T20:06:25.039Z,98993.97
2022-11-27T20:08:26.652Z,98986.91
2022-11-27T20:10:28.882Z,98985.22
2022-11-27T20:12:35.738Z,98985.22
2022-11-27T20:14:37.749Z,98984.38
2022-11-27T20:16:39.824Z,98976.47
2022-11-27T20:18:42.048Z,98972.94
2022-11-27T20:20:48.021Z,98973.97
2022-11-27T20:22:50.358Z,98968.78
2022-11-27T20:25:17.910Z,98978.81
2022-11-27T20:27:15.646Z,98977.16
2022-11-27T20:29:18.048Z,98969.00
2022-11-27T20:31:34.403Z,98968.38
2022-11-27T20:33:36.622Z,98966.50
2022-11-27T20:35:42.464Z,98967.34
2022-11-27T20:37:44.451Z,98967.34
2022-11-27T20:39:46.561Z,98969.22
2022-11-27T20:41:49.478Z,98976.31
2022-11-27T20:43:56.827Z,98961.31
2022-11-27T20:46:01.086Z,98962.34
2022-11-27T20:48:02.826Z,98947.75
2022-11-27T20:50:06.891Z,98952.34
2022-11-27T20:52:10.769Z,98941.47
2022-11-27T20:54:13.870Z,98938.75
2022-11-27T20:56:19.336Z,98931.66
2022-11-27T20:58:21.393Z,98935.00
2022-11-27T21:00:26.965Z,98929.56
2022-11-27T21:02:28.871Z,98930.63
2022-11-27T21:04:32.420Z,98928.94
2022-11-27T21:06:38.100Z,98928.72
2022-11-27T21:08:44.149Z,98924.94
2022-11-27T21:10:46.384Z,98918.91
2022-11-27T21:12:48.193Z,98917.88
2022-11-27T21:14:52.372Z,98925.19
2022-11-27T21:17:01.558Z,98919.75
2022-11-27T21:19:12.143Z,98923.50
2022-11-27T21:21:14.378Z,98917.28
2022-11-27T21:23:16.369Z,98913.50
2022-11-27T21:25:25.362Z,98911.38
2022-11-27T21:27:28.574Z,98903.47
2022-11-27T21:29:30.810Z,98909.72
2022-11-27T21:31:37.760Z,98915.16
2022-11-27T21:33:40.147Z,98916.00
2022-11-27T21:35:42.527Z,98914.31
2022-11-27T21:37:44.334Z,98917.63
2022-11-27T21:39:46.157Z,98923.06
2022-11-27T21:41:52.028Z,98917.63
2022-11-27T21:43:57.137Z,98916.00
2022-11-27T21:46:06.175Z,98905.94
2022-11-27T21:48:13.897Z,98912.22
2022-11-27T21:50:19.316Z,98901.34
2022-11-27T21:52:24.612Z,98891.31
2022-11-27T21:54:26.640Z,98884.22
2022-11-27T21:56:34.370Z,98879.63
2022-11-27T21:58:37.232Z,98874.78
2022-11-27T22:00:39.194Z,98870.44
2022-11-27T22:02:50.289Z,98871.28
2022-11-27T22:04:52.126Z,98866.28
2022-11-27T22:06:54.092Z,98864.19
2022-11-27T22:08:59.726Z,98857.91
2022-11-27T22:11:05.484Z,98852.72
2022-11-27T22:13:07.396Z,98849.75
2022-11-27T22:15:12.436Z,98850.59
2022-11-27T22:17:14.557Z,98847.06
2022-11-27T22:19:18.240Z,98842.47
2022-11-27T22:21:19.958Z,98838.69
2022-11-27T22:23:21.941Z,98846.00
2022-11-27T22:25:23.990Z,98839.50
2022-11-27T22:27:25.911Z,98843.28
2022-11-27T22:29:27.954Z,98842.22
2022-11-27T22:31:31.271Z,98842.22
2022-11-27T22:33:35.496Z,98847.66
2022-11-27T22:35:37.524Z,98844.13
2022-11-27T22:37:39.509Z,98845.16
2022-11-27T22:39:43.400Z,98847.66
2022-11-27T22:41:44.952Z,98844.13
2022-11-27T22:43:47.087Z,98846.00
2022-11-27T22:45:49.747Z,98843.28
2022-11-27T22:47:52.131Z,98839.75
2022-11-27T22:49:54.025Z,98846.00
2022-11-27T22:52:00.374Z,98841.16
2022-11-27T22:54:05.292Z,98844.94
2022-11-27T22:56:10.724Z,98843.88
2022-11-27T22:58:12.595Z,98846.34
2022-11-27T23:00:14.788Z,98851.00
2022-11-27T23:02:20.093Z,98844.47
2022-11-27T23:04:21.833Z,98838.22
2022-11-27T23:06:23.665Z,98845.56
2022-11-27T23:08:25.685Z,98836.56
2022-11-27T23:10:27.557Z,98833.88
2022-11-27T23:12:29.155Z,98831.16
2022-11-27T23:14:30.784Z,98827.59
2022-11-27T23:16:33.956Z,98827.34
2022-11-27T23:18:36.153Z,98823.84
2022-11-27T23:20:44.180Z,98818.41
2022-11-27T23:22:45.735Z,98813.78
2022-11-27T23:24:47.331Z,98816.72
2022-11-27T23:26:48.824Z,98812.97
2022-11-27T23:28:52.610Z,98808.59
2022-11-27T23:31:22.386Z,98804.84
2022-11-27T23:33:19.248Z,98808.59
2022-11-27T23:35:22.353Z,98808.34
2022-11-27T23:37:24.314Z,98797.72
2022-11-27T23:39:25.900Z,98788.53
2022-11-27T23:41:31.023Z,98796.69
2022-11-27T23:43:32.837Z,98788.53
2022-11-27T23:45:37.603Z,98779.56
2022-11-27T23:47:39.967Z,98791.25
2022-11-27T23:49:42.630Z,98807.53
2022-11-27T23:51:44.408Z,98806.72
2022-11-27T23:53:48.889Z,98810.25
2022-11-27T23:55:50.848Z,98811.06
2022-11-27T23:57:52.507Z,98804.84
2022-11-27T23:59:54.103Z,98810.25
